Nature

Haifa Airport (HFA/LLHA) also known as U Michaeli Airport is a small international airport located in Haifa, Israel. It is located to the east of the city.
It mainly serves civilian flights, with some military usage. Most passenger flights utilizing the airport are domestic operations to Eilat and Tel Aviv.

AT EILAT AIRPORT YOU CAN FIND A SINGLE RUNWAY (16/34).

Scenery:

Sim Download Size Author
P3D & FSX LLHA Haifa v1.1 16.9MB Freeware Niv Tesler + Bar Rodoy
P3D & FSX ICVFR Haifa 32.8MB Freeware Chris Bell

Charts:

File Name
General Aerodrome Chart
Ground Parkings Chart
Ground Parkings G
Ground Parkings N
CVFR Entrance, and exit CVFR
CVFR Training Zones Chart
CVFR Traffic Pattrens Chart

METAR & TAF:

Available data for LLHA from the past hour
HAIFA (ISR-AFB)
TAF
TAF LLHA 182320Z 1900/1924 VRB03KT CAVOK BECMG 1907/1909 34012KT BECMG 1916/1918 02005KT TX22/1912Z TN12/1904Z